createdAt,value
2023-04-21T00:00:25.144Z,82.04
2023-04-21T00:02:54.411Z,83.05
2023-04-21T00:05:21.591Z,83.16
2023-04-21T00:07:52.556Z,83.82
2023-04-21T00:10:19.424Z,83.08
2023-04-21T00:12:46.223Z,82.71
2023-04-21T00:15:16.088Z,84.48
2023-04-21T00:17:45.436Z,85.00
2023-04-21T00:20:15.397Z,84.98
2023-04-21T00:22:42.188Z,85.46
2023-04-21T00:25:09.560Z,84.92
2023-04-21T00:27:36.495Z,84.52
2023-04-21T00:30:03.698Z,85.28
2023-04-21T00:32:30.982Z,85.93
2023-04-21T00:34:57.975Z,85.74
2023-04-21T00:37:25.021Z,85.44
2023-04-21T00:39:54.106Z,85.15
2023-04-21T00:42:23.462Z,85.62
2023-04-21T00:44:51.437Z,86.08
2023-04-21T00:47:19.723Z,85.67
2023-04-21T00:49:47.335Z,86.34
2023-04-21T00:52:17.569Z,85.68
2023-04-21T00:54:44.808Z,86.19
2023-04-21T00:57:12.549Z,85.95
2023-04-21T00:59:41.978Z,85.96
2023-04-21T01:02:11.390Z,86.41
2023-04-21T01:04:40.249Z,85.99
2023-04-21T01:07:07.931Z,85.79
2023-04-21T01:09:37.891Z,85.52
2023-04-21T01:12:11.183Z,85.33
2023-04-21T01:14:40.878Z,85.91
2023-04-21T01:17:10.591Z,85.77
2023-04-21T01:19:45.313Z,85.23
2023-04-21T01:22:15.201Z,85.76
2023-04-21T01:24:45.385Z,84.83
2023-04-21T01:27:22.479Z,85.45
2023-04-21T01:29:53.367Z,85.91
2023-04-21T01:32:24.399Z,85.50
2023-04-21T01:34:52.498Z,84.58
2023-04-21T01:37:26.424Z,84.86
2023-04-21T01:39:59.320Z,85.31
2023-04-21T01:42:28.227Z,84.82
2023-04-21T01:44:56.160Z,85.19
2023-04-21T01:47:26.456Z,86.29
2023-04-21T01:49:56.390Z,85.53
2023-04-21T01:52:25.933Z,86.33
2023-04-21T01:54:52.760Z,86.40
2023-04-21T01:57:19.863Z,86.02
2023-04-21T01:59:49.795Z,86.01
2023-04-21T02:02:16.849Z,86.38
2023-04-21T02:04:46.448Z,85.57
2023-04-21T02:07:17.981Z,86.22
2023-04-21T02:09:46.965Z,86.83
2023-04-21T02:12:16.517Z,86.39
2023-04-21T02:14:43.447Z,87.20
2023-04-21T02:17:15.158Z,86.45
2023-04-21T02:19:42.029Z,86.66
2023-04-21T02:22:12.912Z,86.41
2023-04-21T02:24:43.130Z,86.51
2023-04-21T02:27:10.046Z,87.41
2023-04-21T02:29:36.901Z,86.83
2023-04-21T02:34:37.462Z,86.12
2023-04-21T02:37:04.858Z,86.72
2023-04-21T02:39:31.841Z,86.21
2023-04-21T02:41:58.886Z,86.33
2023-04-21T02:44:26.221Z,86.22
2023-04-21T02:46:53.131Z,85.86
2023-04-21T02:49:20.483Z,85.68
2023-04-21T02:51:47.998Z,86.22
2023-04-21T02:54:17.150Z,86.88
2023-04-21T02:56:44.077Z,86.97
2023-04-21T02:59:11.856Z,86.73
2023-04-21T03:01:41.059Z,86.77
2023-04-21T03:04:11.144Z,87.44
2023-04-21T03:06:41.139Z,87.91
2023-04-21T03:09:07.968Z,88.73
2023-04-21T03:11:37.098Z,87.76
2023-04-21T03:14:06.271Z,87.92
2023-04-21T03:16:33.205Z,88.61
2023-04-21T03:19:00.283Z,88.40
2023-04-21T03:21:27.202Z,88.76
2023-04-21T03:23:54.126Z,88.27
2023-04-21T03:26:21.287Z,88.35
2023-04-21T03:28:48.173Z,88.40
2023-04-21T03:31:15.211Z,87.83
2023-04-21T03:33:42.086Z,86.99
2023-04-21T03:36:12.170Z,86.77
2023-04-21T03:38:41.565Z,85.59
2023-04-21T03:41:10.964Z,86.34
2023-04-21T03:43:40.061Z,85.58
2023-04-21T03:46:06.996Z,86.80
2023-04-21T03:48:36.114Z,85.75
2023-04-21T03:51:07.692Z,86.23
2023-04-21T03:53:34.650Z,86.26
2023-04-21T03:56:04.099Z,85.49
2023-04-21T03:58:31.019Z,85.66
2023-04-21T04:01:02.547Z,85.31
2023-04-21T04:03:29.621Z,85.56
2023-04-21T04:05:56.646Z,85.23
2023-04-21T04:08:30.769Z,85.65
2023-04-21T04:10:57.815Z,86.20
2023-04-21T04:13:26.406Z,85.65
2023-04-21T04:15:53.835Z,85.76
2023-04-21T04:18:23.397Z,85.28
2023-04-21T04:20:52.618Z,85.14
2023-04-21T04:23:19.662Z,85.59
2023-04-21T04:25:47.913Z,85.63
2023-04-21T04:28:15.654Z,84.67
2023-04-21T04:30:43.828Z,85.33
2023-04-21T04:33:11.954Z,84.15
2023-04-21T04:35:39.137Z,83.96
2023-04-21T04:38:07.704Z,83.81
2023-04-21T04:40:34.737Z,83.82
2023-04-21T04:43:04.408Z,84.04
2023-04-21T04:45:33.100Z,83.35
2023-04-21T04:48:00.406Z,83.07
2023-04-21T04:50:29.970Z,83.35
2023-04-21T04:53:00.391Z,82.95
2023-04-21T04:55:29.583Z,82.46
2023-04-21T04:57:56.607Z,82.80
2023-04-21T05:00:23.863Z,82.66
2023-04-21T05:02:53.410Z,81.86
2023-04-21T05:05:24.837Z,81.60
2023-04-21T05:07:51.793Z,81.56
2023-04-21T05:10:18.908Z,80.59
2023-04-21T05:12:45.936Z,80.35
2023-04-21T05:15:13.090Z,79.84
2023-04-21T05:17:40.083Z,79.76
2023-04-21T05:20:08.963Z,78.68
2023-04-21T05:22:40.374Z,79.14
2023-04-21T05:25:07.976Z,78.26
2023-04-21T05:28:11.137Z,77.56
2023-04-21T05:30:51.937Z,76.95
2023-04-21T05:33:25.908Z,76.59
2023-04-21T05:35:59.014Z,75.40
2023-04-21T05:38:33.585Z,75.48
2023-04-21T05:41:07.050Z,74.65
2023-04-21T05:43:44.520Z,75.52
2023-04-21T05:46:15.052Z,74.61
2023-04-21T05:48:51.894Z,74.18
2023-04-21T05:51:24.050Z,74.03
2023-04-21T05:54:00.560Z,73.38
2023-04-21T05:56:30.900Z,73.50
2023-04-21T05:59:13.333Z,72.55
2023-04-21T06:01:41.394Z,72.80
2023-04-21T06:04:11.550Z,73.61
2023-04-21T06:06:44.949Z,72.16
2023-04-21T06:09:16.031Z,71.72
2023-04-21T06:11:45.852Z,72.36
2023-04-21T06:14:13.645Z,72.61
2023-04-21T06:16:44.650Z,71.51
2023-04-21T06:19:23.430Z,70.98
2023-04-21T06:22:17.519Z,70.36
2023-04-21T06:24:52.159Z,69.30
2023-04-21T06:27:23.556Z,69.07
2023-04-21T06:29:57.949Z,68.39
2023-04-21T06:32:28.429Z,67.43
2023-04-21T06:35:01.782Z,66.96
2023-04-21T06:37:44.250Z,67.74
2023-04-21T06:40:20.686Z,67.58
2023-04-21T06:42:49.071Z,65.67
2023-04-21T06:45:21.574Z,66.22
2023-04-21T06:48:02.531Z,65.97
2023-04-21T06:50:38.745Z,66.00
2023-04-21T06:53:07.701Z,66.01
2023-04-21T06:55:41.593Z,65.66
2023-04-21T06:58:13.497Z,63.16
2023-04-21T07:00:43.614Z,63.26
2023-04-21T07:03:22.346Z,64.04
2023-04-21T07:05:56.610Z,63.56
2023-04-21T07:08:42.118Z,62.10
2023-04-21T07:11:18.604Z,62.95
2023-04-21T07:13:53.564Z,62.35
2023-04-21T07:16:21.516Z,61.16
2023-04-21T07:18:56.334Z,61.72
2023-04-21T07:21:39.557Z,61.16
2023-04-21T07:24:35.682Z,59.21
2023-04-21T07:27:06.095Z,59.33
2023-04-21T07:29:40.342Z,57.90
2023-04-21T07:32:13.897Z,57.57
2023-04-21T07:34:43.143Z,56.68
2023-04-21T07:37:20.457Z,57.12
2023-04-21T07:39:54.135Z,55.28
2023-04-21T07:42:27.874Z,54.59
2023-04-21T07:45:14.287Z,54.29
2023-04-21T07:47:49.819Z,55.70
2023-04-21T07:50:33.099Z,55.34
2023-04-21T07:53:25.392Z,54.31
2023-04-21T07:55:55.785Z,54.45
2023-04-21T07:58:31.608Z,53.03
2023-04-21T08:01:04.533Z,52.73
2023-04-21T08:03:42.393Z,52.64
2023-04-21T08:06:21.490Z,52.94
2023-04-21T08:08:53.576Z,51.34
2023-04-21T08:11:22.938Z,50.32
2023-04-21T08:13:56.189Z,50.77
2023-04-21T08:16:24.526Z,51.37
2023-04-21T08:18:58.231Z,49.66
2023-04-21T08:21:32.271Z,49.69
2023-04-21T08:24:04.929Z,48.62
2023-04-21T08:26:47.814Z,48.50
2023-04-21T08:29:18.765Z,47.72
2023-04-21T08:31:54.864Z,46.98
2023-04-21T08:34:25.713Z,47.49
2023-04-21T08:37:04.847Z,46.56
2023-04-21T08:42:43.576Z,47.66
2023-04-21T08:45:20.055Z,47.50
2023-04-21T08:48:08.760Z,47.16
2023-04-21T08:51:01.041Z,46.75
2023-04-21T08:53:31.239Z,46.68
2023-04-21T08:56:11.169Z,46.15
2023-04-21T08:58:47.020Z,45.51
2023-04-21T09:01:32.552Z,45.09
2023-04-21T09:04:25.027Z,43.10
2023-04-21T09:06:59.226Z,44.45
2023-04-21T09:09:26.377Z,43.78
2023-04-21T09:11:59.904Z,42.80
2023-04-21T09:14:33.102Z,41.41
2023-04-21T09:17:04.655Z,41.95
2023-04-21T09:19:34.783Z,42.72
2023-04-21T09:22:02.281Z,41.27
2023-04-21T09:24:31.617Z,41.67
2023-04-21T09:27:06.539Z,41.76
2023-04-21T09:29:33.525Z,40.07
2023-04-21T09:32:02.932Z,39.48
2023-04-21T09:34:30.287Z,37.88
2023-04-21T09:37:02.399Z,37.12
2023-04-21T09:39:43.285Z,38.68
2023-04-21T09:42:18.618Z,39.00
2023-04-21T09:44:55.243Z,38.38
2023-04-21T09:47:33.084Z,36.27
2023-04-21T09:50:03.056Z,36.89
2023-04-21T09:52:30.843Z,37.35
2023-04-21T09:55:04.300Z,37.27
2023-04-21T09:57:34.848Z,37.08
2023-04-21T10:00:11.985Z,36.80
2023-04-21T10:02:45.401Z,36.49
2023-04-21T10:05:14.910Z,35.84
2023-04-21T10:07:41.923Z,34.19
2023-04-21T10:10:31.916Z,35.24
2023-04-21T10:13:01.842Z,36.45
2023-04-21T10:15:40.442Z,36.32
2023-04-21T10:18:21.962Z,36.78
2023-04-21T10:20:56.371Z,36.59
2023-04-21T10:23:52.089Z,34.87
2023-04-21T10:26:24.685Z,35.30
2023-04-21T10:29:03.656Z,33.71
2023-04-21T10:31:57.822Z,33.04
2023-04-21T10:34:36.645Z,32.23
2023-04-21T10:37:08.561Z,32.25
2023-04-21T10:39:55.648Z,31.48
2023-04-21T10:42:24.702Z,32.96
2023-04-21T10:44:57.646Z,32.95
2023-04-21T10:47:29.428Z,33.80
2023-04-21T10:49:58.906Z,33.42
2023-04-21T10:52:35.949Z,32.38
2023-04-21T10:55:06.662Z,31.04
2023-04-21T10:57:35.774Z,31.98
2023-04-21T11:00:09.095Z,32.09
2023-04-21T11:02:40.475Z,32.72
2023-04-21T11:05:12.722Z,31.87
2023-04-21T11:07:39.688Z,30.55
2023-04-21T11:10:14.859Z,30.44
2023-04-21T11:12:41.857Z,30.25
2023-04-21T11:15:11.655Z,29.00
2023-04-21T11:17:39.918Z,30.84
2023-04-21T11:20:09.812Z,29.87
2023-04-21T11:22:39.929Z,29.73
2023-04-21T11:25:19.142Z,28.58
2023-04-21T11:28:00.132Z,28.61
2023-04-21T11:30:34.568Z,29.20
2023-04-21T11:33:01.856Z,28.62
2023-04-21T11:35:28.831Z,29.61
2023-04-21T11:37:58.695Z,29.98
2023-04-21T11:40:25.617Z,29.29
2023-04-21T11:42:57.495Z,27.94
2023-04-21T11:45:24.358Z,28.60
2023-04-21T11:47:51.322Z,28.26
2023-04-21T11:50:38.994Z,28.32
2023-04-21T11:53:06.744Z,27.40
2023-04-21T11:55:39.182Z,27.61
2023-04-21T11:58:06.175Z,27.49
2023-04-21T12:00:33.088Z,27.33
2023-04-21T12:03:04.683Z,27.25
2023-04-21T12:05:38.305Z,27.94
2023-04-21T12:08:08.028Z,27.87
2023-04-21T12:10:35.043Z,27.48
2023-04-21T12:13:01.981Z,27.34
2023-04-21T12:15:30.793Z,26.84
2023-04-21T12:17:57.759Z,26.25
2023-04-21T12:20:28.104Z,26.44
2023-04-21T12:22:56.504Z,25.84
2023-04-21T12:25:24.610Z,26.70
2023-04-21T12:27:52.884Z,27.01
2023-04-21T12:30:21.203Z,27.13
2023-04-21T12:32:48.492Z,27.39
2023-04-21T12:35:16.046Z,26.99
2023-04-21T12:37:43.129Z,26.85
2023-04-21T12:40:15.719Z,26.79
2023-04-21T12:42:44.896Z,27.05
2023-04-21T12:45:12.075Z,27.50
2023-04-21T12:47:42.980Z,27.84
2023-04-21T12:50:12.576Z,27.38
2023-04-21T12:52:39.519Z,28.06
2023-04-21T12:55:06.634Z,28.10
2023-04-21T12:57:33.671Z,27.79
2023-04-21T13:00:01.027Z,27.73
2023-04-21T13:02:37.029Z,27.58
2023-04-21T13:05:04.984Z,28.21
2023-04-21T13:07:33.866Z,28.22
2023-04-21T13:10:06.634Z,28.25
2023-04-21T13:12:33.858Z,27.83
2023-04-21T13:15:03.334Z,27.71
2023-04-21T13:17:33.036Z,28.32
2023-04-21T13:20:00.137Z,28.29
2023-04-21T13:22:27.040Z,28.46
2023-04-21T13:24:53.941Z,28.83
2023-04-21T13:27:20.757Z,28.94
2023-04-21T13:29:49.167Z,29.21
2023-04-21T13:32:16.224Z,29.24
2023-04-21T13:34:45.228Z,29.23
2023-04-21T13:37:16.019Z,29.01
2023-04-21T13:39:46.867Z,29.71
2023-04-21T13:42:16.433Z,28.87
2023-04-21T13:44:43.327Z,28.35
2023-04-21T13:47:13.494Z,28.10
2023-04-21T13:49:40.546Z,27.39
2023-04-21T13:52:07.539Z,26.76
2023-04-21T13:54:38.982Z,26.78
2023-04-21T13:57:06.019Z,26.64
2023-04-21T13:59:33.287Z,27.59
2023-04-21T14:02:00.539Z,27.38
2023-04-21T14:04:27.648Z,26.25
2023-04-21T14:06:55.484Z,25.70
2023-04-21T14:09:22.474Z,26.46
2023-04-21T14:11:49.426Z,26.56
2023-04-21T14:14:31.479Z,26.37
2023-04-21T14:17:08.216Z,25.97
2023-04-21T14:19:39.906Z,26.85
2023-04-21T14:22:06.997Z,26.74
2023-04-21T14:24:38.496Z,26.78
2023-04-21T14:27:07.653Z,26.37
2023-04-21T14:29:37.083Z,26.64
2023-04-21T14:32:04.056Z,26.15
2023-04-21T14:34:35.891Z,26.66
2023-04-21T14:37:07.337Z,26.42
2023-04-21T14:39:34.416Z,26.47
2023-04-21T14:42:04.076Z,26.73
2023-04-21T14:44:31.210Z,26.86
2023-04-21T14:47:09.151Z,27.34
2023-04-21T14:49:41.679Z,27.40
2023-04-21T14:52:08.707Z,27.29
2023-04-21T14:54:35.672Z,26.82
2023-04-21T14:57:14.789Z,27.17
2023-04-21T14:59:46.859Z,27.30
2023-04-21T15:02:14.351Z,27.68
2023-04-21T15:04:45.010Z,27.30
2023-04-21T15:07:12.329Z,27.41
2023-04-21T15:09:39.294Z,27.52
2023-04-21T15:12:06.852Z,28.25
2023-04-21T15:14:33.890Z,28.99
2023-04-21T15:17:03.128Z,29.03
2023-04-21T15:19:30.227Z,28.61
2023-04-21T15:22:00.714Z,28.81
2023-04-21T15:24:30.273Z,28.14
2023-04-21T15:26:57.229Z,28.49
2023-04-21T15:29:26.865Z,28.76
2023-04-21T15:31:53.703Z,28.84
2023-04-21T15:34:20.596Z,28.94
2023-04-21T15:36:50.460Z,29.18
2023-04-21T15:39:19.721Z,29.21
2023-04-21T15:41:49.792Z,29.42
2023-04-21T15:44:16.660Z,29.47
2023-04-21T15:46:43.688Z,29.74
2023-04-21T15:49:12.894Z,30.04
2023-04-21T15:51:42.454Z,30.15
2023-04-21T15:54:12.084Z,30.27
2023-04-21T15:56:38.979Z,30.02
2023-04-21T15:59:07.425Z,29.70
2023-04-21T16:01:40.512Z,30.34
2023-04-21T16:04:07.621Z,29.55
2023-04-21T16:06:36.116Z,30.26
2023-04-21T16:09:03.427Z,30.00
2023-04-21T16:11:30.517Z,30.68
2023-04-21T16:13:59.973Z,30.18
2023-04-21T16:16:26.887Z,30.75
2023-04-21T16:18:54.030Z,30.61
2023-04-21T16:21:23.414Z,30.76
2023-04-21T16:23:50.365Z,30.23
2023-04-21T16:26:17.227Z,30.39
2023-04-21T16:28:44.167Z,30.83
2023-04-21T16:31:14.125Z,30.89
2023-04-21T16:33:43.301Z,31.33
2023-04-21T16:36:10.253Z,30.90
2023-04-21T16:38:37.251Z,30.92
2023-04-21T16:41:04.229Z,30.85
2023-04-21T16:43:33.518Z,31.05
2023-04-21T16:46:00.503Z,30.67
2023-04-21T16:48:30.900Z,30.62
2023-04-21T16:50:58.356Z,30.91
2023-04-21T16:53:28.124Z,31.02
2023-04-21T16:55:55.016Z,31.28
2023-04-21T16:58:26.116Z,31.25
2023-04-21T17:00:53.331Z,31.50
2023-04-21T17:03:23.310Z,31.63
2023-04-21T17:05:50.771Z,31.54
2023-04-21T17:08:17.713Z,32.25
2023-04-21T17:10:46.873Z,32.60
2023-04-21T17:13:13.769Z,32.41
2023-04-21T17:15:43.195Z,32.11
2023-04-21T17:18:10.657Z,32.51
2023-04-21T17:20:38.027Z,32.33
2023-04-21T17:23:04.890Z,32.32
2023-04-21T17:25:34.410Z,32.58
2023-04-21T17:28:01.845Z,32.57
2023-04-21T17:30:28.776Z,33.07
2023-04-21T17:33:08.360Z,33.05
2023-04-21T17:35:55.785Z,33.35
2023-04-21T17:38:29.662Z,33.32
2023-04-21T17:40:56.750Z,33.03
2023-04-21T17:43:24.280Z,33.32
2023-04-21T17:45:52.360Z,33.14
2023-04-21T17:48:19.865Z,33.25
2023-04-21T17:50:47.077Z,32.90
2023-04-21T17:53:13.944Z,33.08
2023-04-21T17:55:40.994Z,33.26
2023-04-21T17:58:12.512Z,33.01
2023-04-21T18:00:42.072Z,32.84
2023-04-21T18:03:09.110Z,33.45
2023-04-21T18:05:38.264Z,33.48
2023-04-21T18:08:05.504Z,33.36
2023-04-21T18:10:32.396Z,32.91
2023-04-21T18:12:59.250Z,33.36
2023-04-21T18:15:29.595Z,33.56
2023-04-21T18:20:23.381Z,34.07
2023-04-21T18:22:54.291Z,34.22
2023-04-21T18:25:40.699Z,34.11
2023-04-21T18:28:14.427Z,34.71
2023-04-21T18:30:44.223Z,34.49
2023-04-21T18:33:11.521Z,34.83
2023-04-21T18:35:43.450Z,34.77
2023-04-21T18:38:13.512Z,34.96
2023-04-21T18:40:41.195Z,34.82
2023-04-21T18:43:11.867Z,34.77
2023-04-21T18:45:38.838Z,34.58
2023-04-21T18:48:05.853Z,34.86
2023-04-21T18:50:35.878Z,35.18
2023-04-21T18:53:07.218Z,36.02
2023-04-21T18:55:36.059Z,36.92
2023-04-21T18:58:03.337Z,38.44
2023-04-21T19:00:31.972Z,38.98
2023-04-21T19:03:02.802Z,40.57
2023-04-21T19:05:31.709Z,41.06
2023-04-21T19:08:01.441Z,41.41
2023-04-21T19:10:28.897Z,42.14
2023-04-21T19:12:55.757Z,42.43
2023-04-21T19:15:23.038Z,42.72
2023-04-21T19:17:50.005Z,43.15
2023-04-21T19:20:17.942Z,43.42
2023-04-21T19:22:44.901Z,44.09
2023-04-21T19:25:12.030Z,44.53
2023-04-21T19:27:42.976Z,45.01
2023-04-21T19:30:10.466Z,45.53
2023-04-21T19:32:38.445Z,45.79
2023-04-21T19:35:08.287Z,46.01
2023-04-21T19:37:37.447Z,46.27
2023-04-21T19:40:06.208Z,46.58
2023-04-21T19:42:33.021Z,47.00
2023-04-21T19:44:59.974Z,46.84
2023-04-21T19:47:29.402Z,46.43
2023-04-21T19:49:58.835Z,46.23
2023-04-21T19:52:25.782Z,46.21
2023-04-21T19:54:52.618Z,46.29
2023-04-21T19:57:19.464Z,46.84
2023-04-21T19:59:46.447Z,47.17
2023-04-21T20:02:16.569Z,46.96
2023-04-21T20:04:43.686Z,46.74
2023-04-21T20:07:14.280Z,47.01
2023-04-21T20:09:43.306Z,46.86
2023-04-21T20:12:12.394Z,46.73
2023-04-21T20:14:39.324Z,46.99
2023-04-21T20:17:06.199Z,46.36
2023-04-21T20:19:33.858Z,47.39
2023-04-21T20:22:03.891Z,47.36
2023-04-21T20:24:30.881Z,47.47
2023-04-21T20:26:57.862Z,47.82
2023-04-21T20:29:24.750Z,46.64
2023-04-21T20:31:53.847Z,47.12
2023-04-21T20:34:20.910Z,47.46
2023-04-21T20:36:51.578Z,46.62
2023-04-21T20:39:18.484Z,47.05
2023-04-21T20:41:46.165Z,46.18
2023-04-21T20:44:16.887Z,46.38
2023-04-21T20:46:46.443Z,46.66
2023-04-21T20:49:13.701Z,46.65
2023-04-21T20:51:44.135Z,46.23
2023-04-21T20:54:13.992Z,47.00
2023-04-21T20:56:44.403Z,46.02
2023-04-21T20:59:11.218Z,45.94
2023-04-21T21:01:41.214Z,46.70
2023-04-21T21:04:08.368Z,47.23
2023-04-21T21:06:37.824Z,47.09
2023-04-21T21:09:07.725Z,46.44
2023-04-21T21:11:34.689Z,47.00
2023-04-21T21:14:04.002Z,47.01
2023-04-21T21:16:33.385Z,47.00
2023-04-21T21:19:00.235Z,46.90
2023-04-21T21:21:27.195Z,47.32
2023-04-21T21:23:56.528Z,47.43
2023-04-21T21:26:23.465Z,47.00
2023-04-21T21:28:50.547Z,46.60
2023-04-21T21:31:17.570Z,46.64
2023-04-21T21:33:44.469Z,47.26
2023-04-21T21:36:14.344Z,47.73
2023-04-21T21:38:41.229Z,47.71
2023-04-21T21:41:12.208Z,47.72
2023-04-21T21:43:39.161Z,47.60
2023-04-21T21:46:09.304Z,47.28
2023-04-21T21:48:36.237Z,47.06
2023-04-21T21:51:04.322Z,47.30
2023-04-21T21:53:32.420Z,47.32
2023-04-21T21:56:00.228Z,47.41
2023-04-21T21:58:27.242Z,47.01
2023-04-21T22:00:54.862Z,47.57
2023-04-21T22:03:22.225Z,47.12
2023-04-21T22:05:51.598Z,47.28
2023-04-21T22:08:18.486Z,47.37
2023-04-21T22:10:45.670Z,46.54
2023-04-21T22:13:15.230Z,46.84
2023-04-21T22:15:45.174Z,47.30
2023-04-21T22:18:12.100Z,47.01
2023-04-21T22:20:38.975Z,47.25
2023-04-21T22:23:08.414Z,47.59
2023-04-21T22:25:38.235Z,47.25
2023-04-21T22:28:05.085Z,46.90
2023-04-21T22:30:32.390Z,47.09
2023-04-21T22:32:59.409Z,47.34
2023-04-21T22:35:26.281Z,47.69
2023-04-21T22:37:53.213Z,47.28
2023-04-21T22:40:20.169Z,47.16
2023-04-21T22:42:47.085Z,47.31
2023-04-21T22:45:14.036Z,47.81
2023-04-21T22:47:41.037Z,47.02
2023-04-21T22:50:09.456Z,46.62
2023-04-21T22:52:38.427Z,46.67
2023-04-21T22:55:05.918Z,46.48
2023-04-21T22:57:37.954Z,47.27
2023-04-21T23:00:10.076Z,47.37
2023-04-21T23:02:37.361Z,47.02
2023-04-21T23:05:06.998Z,47.08
2023-04-21T23:07:36.766Z,47.13
2023-04-21T23:10:04.083Z,47.37
2023-04-21T23:12:33.505Z,47.46
2023-04-21T23:15:02.428Z,46.91
2023-04-21T23:17:29.344Z,47.70
2023-04-21T23:19:56.503Z,47.87
2023-04-21T23:22:25.949Z,47.25
2023-04-21T23:24:53.033Z,47.51
2023-04-21T23:27:19.984Z,47.39
2023-04-21T23:29:46.866Z,47.38
2023-04-21T23:32:13.794Z,47.35
2023-04-21T23:34:40.722Z,47.00
2023-04-21T23:37:09.645Z,47.35
2023-04-21T23:39:41.565Z,47.25
2023-04-21T23:42:11.218Z,47.06
2023-04-21T23:44:42.808Z,46.72
2023-04-21T23:47:09.662Z,47.26
2023-04-21T23:49:36.687Z,47.04
2023-04-21T23:52:03.766Z,47.37
2023-04-21T23:54:30.703Z,47.19
2023-04-21T23:56:58.330Z,47.23
2023-04-21T23:59:25.223Z,47.57
